Time;durP1;ratioP1;P1;durP2;ratioP2;P2;SDS_P1;SDS_P2;PMS_P1;PMS_P2;Temp;Humidity;BMP_temperature;BMP_pressure;BME280_temperature;BME280_humidity;BME280_pressure;Samples;Min_cycle;Max_cycle;Signal;HPM_P1;HPM_P2
2024/01/26 00:00:38;;;;;;;27.80;9.98;;;;;;;8.45;83.90;102393.31;7389102;19;20022;-58
2024/01/26 00:03:08;;;;;;;32.08;10.60;;;;;;;8.29;84.43;102390.38;7388990;19;20018;-58
2024/01/26 00:05:39;;;;;;;31.25;10.55;;;;;;;8.38;84.54;102379.47;7391673;19;20378;-58
2024/01/26 00:08:14;;;;;;;27.48;10.20;;;;;;;8.49;84.27;102372.00;7390595;19;20015;-58
2024/01/26 00:10:45;;;;;;;31.20;10.95;;;;;;;8.40;84.33;102364.47;7388044;19;20043;-57
2024/01/26 00:13:15;;;;;;;30.70;11.10;;;;;;;8.33;84.81;102368.22;7389945;19;20490;-58
2024/01/26 00:15:47;;;;;;;36.22;12.93;;;;;;;8.36;84.79;102369.88;7390594;19;20037;-58
2024/01/26 00:18:17;;;;;;;27.55;10.25;;;;;;;8.49;84.64;102369.38;7389366;19;20364;-55
2024/01/26 00:20:48;;;;;;;31.52;11.75;;;;;;;8.55;84.43;102357.72;7388410;19;20015;-55
2024/01/26 00:23:19;;;;;;;31.15;11.90;;;;;;;8.50;84.26;102354.38;7389989;19;20018;-56
2024/01/26 00:25:50;;;;;;;38.28;12.10;;;;;;;8.34;84.81;102348.81;7388900;19;20032;-58
2024/01/26 00:28:21;;;;;;;29.15;10.65;;;;;;;8.45;84.95;102353.72;7388834;19;20027;-56
2024/01/26 00:30:52;;;;;;;31.40;11.20;;;;;;;8.51;84.46;102342.94;7388289;19;20018;-58
2024/01/26 00:33:23;;;;;;;33.60;12.15;;;;;;;8.40;84.70;102345.13;7389974;19;20043;-58
2024/01/26 00:35:53;;;;;;;30.50;10.77;;;;;;;8.46;84.64;102345.72;7389925;19;20350;-58
2024/01/26 00:38:23;;;;;;;30.73;11.80;;;;;;;8.53;84.45;102346.34;7390756;19;20078;-58
2024/01/26 00:40:54;;;;;;;27.08;10.88;;;;;;;8.61;83.87;102341.63;7394712;19;20047;-54
2024/01/26 00:43:25;;;;;;;31.88;11.13;;;;;;;8.65;83.96;102343.22;7394112;19;20014;-57
2024/01/26 00:45:55;;;;;;;31.60;10.75;;;;;;;8.66;84.20;102341.44;7396941;19;20027;-57
2024/01/26 00:48:26;;;;;;;27.50;10.80;;;;;;;8.70;84.00;102336.00;7396352;19;20027;-58
2024/01/26 00:50:57;;;;;;;31.00;11.23;;;;;;;8.68;84.15;102329.03;7392908;19;20019;-57
2024/01/26 00:53:29;;;;;;;31.65;10.85;;;;;;;8.57;84.65;102323.31;7395282;19;20053;-58
2024/01/26 00:55:59;;;;;;;29.63;10.23;;;;;;;8.60;84.61;102328.50;7396753;19;20034;-57
2024/01/26 00:58:37;;;;;;;31.52;11.75;;;;;;;8.62;84.53;102308.16;7394189;19;20467;-56
2024/01/26 01:01:07;;;;;;;31.42;10.63;;;;;;;8.75;84.31;102325.22;7394032;19;20057;-56
2024/01/26 01:03:41;;;;;;;28.42;11.20;;;;;;;8.78;84.24;102327.75;7396957;19;20030;-56
2024/01/26 01:06:12;;;;;;;31.75;11.13;;;;;;;8.74;84.12;102321.72;7396168;19;20031;-59
2024/01/26 01:08:44;;;;;;;26.00;10.60;;;;;;;8.72;84.73;102326.19;7396895;19;20011;-56
2024/01/26 01:11:14;;;;;;;26.27;10.57;;;;;;;8.69;84.64;102331.59;7393643;19;20605;-58
2024/01/26 01:13:45;;;;;;;27.83;10.88;;;;;;;8.67;85.12;102329.97;7394641;19;20508;-55
2024/01/26 01:16:17;;;;;;;28.98;10.55;;;;;;;8.68;84.86;102321.13;7396229;19;20025;-58
2024/01/26 01:18:48;;;;;;;27.38;10.52;;;;;;;8.81;84.71;102332.88;7396006;19;20051;-58
2024/01/26 01:21:19;;;;;;;27.23;11.23;;;;;;;8.81;84.83;102322.31;7392885;19;20021;-58
2024/01/26 01:23:49;;;;;;;23.88;10.30;;;;;;;8.76;85.26;102311.09;7395403;19;20019;-58
2024/01/26 01:26:20;;;;;;;24.00;11.27;;;;;;;8.73;85.35;102298.88;7395865;19;20018;-57
2024/01/26 01:28:51;;;;;;;29.52;11.98;;;;;;;8.70;85.43;102292.84;7394092;19;20023;-57
2024/01/26 01:31:21;;;;;;;25.42;11.23;;;;;;;8.66;85.81;102283.34;7392455;19;20015;-56
2024/01/26 01:33:52;;;;;;;28.65;11.73;;;;;;;8.78;85.65;102278.41;7395381;19;20014;-57
2024/01/26 01:36:22;;;;;;;30.13;12.13;;;;;;;8.76;85.57;102280.25;7395754;19;20366;-58
2024/01/26 01:38:53;;;;;;;26.58;10.95;;;;;;;8.70;85.79;102288.44;7393547;19;20014;-58
2024/01/26 01:41:23;;;;;;;26.98;11.27;;;;;;;8.71;85.99;102287.53;7392671;19;20364;-57
2024/01/26 01:43:55;;;;;;;25.90;11.43;;;;;;;8.78;86.08;102277.56;7395182;19;20075;-55
2024/01/26 01:46:26;;;;;;;26.65;12.35;;;;;;;8.76;86.17;102282.03;7394087;19;20052;-58
2024/01/26 01:48:56;;;;;;;28.60;12.15;;;;;;;8.72;86.20;102277.81;7396821;19;20333;-56
2024/01/26 01:51:33;;;;;;;26.08;12.25;;;;;;;8.74;86.51;102274.19;7392607;19;20026;-58
2024/01/26 01:54:03;;;;;;;25.77;11.60;;;;;;;8.71;86.62;102268.19;7396246;19;20387;-57
2024/01/26 01:56:41;;;;;;;28.83;13.00;;;;;;;8.67;86.74;102264.81;7395030;19;20030;-58
2024/01/26 01:59:11;;;;;;;27.00;12.38;;;;;;;8.75;86.88;102261.84;7396497;19;20018;-58
2024/01/26 02:01:42;;;;;;;26.85;11.93;;;;;;;8.78;86.55;102256.44;7392288;19;20393;-58
2024/01/26 02:04:12;;;;;;;31.10;12.00;;;;;;;8.79;86.65;102264.28;7392867;19;20029;-58
2024/01/26 02:06:56;;;;;;;24.73;12.23;;;;;;;8.84;86.44;102257.94;7394774;19;20359;-58
2024/01/26 02:09:27;;;;;;;27.63;11.82;;;;;;;8.84;86.43;102256.16;7392158;19;20018;-57
2024/01/26 02:11:59;;;;;;;31.30;13.32;;;;;;;8.87;86.78;102261.31;7394097;19;20021;-54
2024/01/26 02:14:36;;;;;;;26.02;13.07;;;;;;;8.87;86.88;102263.09;7392805;19;20369;-57
2024/01/26 02:17:07;;;;;;;27.95;12.68;;;;;;;8.94;86.56;102264.56;7394375;19;20014;-57
2024/01/26 02:19:40;;;;;;;28.75;13.63;;;;;;;8.97;86.78;102254.72;7392326;19;20019;-57
2024/01/26 02:22:10;;;;;;;28.15;12.85;;;;;;;8.86;86.88;102248.19;7393430;19;20059;-58
2024/01/26 02:24:41;;;;;;;27.83;13.15;;;;;;;8.92;87.09;102245.28;7393462;19;20021;-57
2024/01/26 02:27:11;;;;;;;25.35;12.48;;;;;;;8.99;86.87;102244.94;7393541;19;20371;-58
2024/01/26 02:29:42;;;;;;;28.55;13.52;;;;;;;9.03;86.61;102238.59;7391251;19;20070;-58
2024/01/26 02:32:13;;;;;;;23.42;12.90;;;;;;;9.03;86.61;102235.09;7392941;19;20018;-55
2024/01/26 02:34:45;;;;;;;28.55;13.30;;;;;;;9.02;87.04;102228.97;7392649;19;20098;-58
2024/01/26 02:37:15;;;;;;;26.70;13.45;;;;;;;8.96;87.34;102210.72;7393364;19;20022;-58
2024/01/26 02:39:46;;;;;;;28.95;13.50;;;;;;;9.00;87.45;102207.03;7391234;19;20027;-57
2024/01/26 02:42:17;;;;;;;26.98;13.35;;;;;;;9.01;87.61;102210.53;7390370;19;20022;-58
2024/01/26 02:44:47;;;;;;;25.98;13.52;;;;;;;9.05;87.48;102206.84;7391808;19;20018;-58
2024/01/26 02:47:18;;;;;;;24.02;12.60;;;;;;;9.08;87.50;102205.81;7391410;19;20011;-55
2024/01/26 02:49:48;;;;;;;27.85;13.77;;;;;;;9.09;87.70;102197.84;7391744;19;20057;-55
2024/01/26 02:52:20;;;;;;;24.55;13.48;;;;;;;9.11;87.52;102185.41;7393152;19;20018;-54
2024/01/26 02:54:52;;;;;;;25.08;13.27;;;;;;;9.11;87.57;102187.19;7393808;19;20014;-57
2024/01/26 02:57:23;;;;;;;26.23;13.60;;;;;;;9.08;88.21;102182.03;7391714;19;20018;-55
2024/01/26 02:59:53;;;;;;;25.92;13.77;;;;;;;9.09;87.91;102174.06;7392333;19;20019;-55
2024/01/26 03:02:24;;;;;;;27.13;14.20;;;;;;;9.08;88.18;102168.81;7392090;19;20018;-57
2024/01/26 03:04:54;;;;;;;25.15;12.93;;;;;;;9.07;88.28;102169.75;7391939;19;20090;-58
2024/01/26 03:07:26;;;;;;;26.42;13.60;;;;;;;9.08;88.40;102172.34;7393098;19;20021;-57
2024/01/26 03:09:56;;;;;;;28.38;14.80;;;;;;;9.14;88.42;102171.22;7390793;19;20020;-57
2024/01/26 03:12:26;;;;;;;28.15;14.75;;;;;;;9.17;88.11;102181.66;7394697;19;20063;-55
2024/01/26 03:14:57;;;;;;;26.33;14.65;;;;;;;9.16;88.50;102172.00;7393911;19;20396;-56
2024/01/26 03:17:31;;;;;;;25.40;14.27;;;;;;;9.18;88.66;102163.06;7394343;19;20030;-56
2024/01/26 03:20:02;;;;;;;26.27;14.63;;;;;;;9.10;89.06;102152.00;7394916;19;20015;-57
2024/01/26 03:22:40;;;;;;;28.38;15.05;;;;;;;9.09;89.25;102154.72;7395325;19;20010;-56
2024/01/26 03:25:11;;;;;;;26.92;15.10;;;;;;;9.14;89.38;102148.28;7397791;19;20028;-56
2024/01/26 03:27:43;;;;;;;25.42;15.05;;;;;;;9.15;89.21;102149.97;7394266;19;20029;-55
2024/01/26 03:30:14;;;;;;;26.23;14.57;;;;;;;9.10;89.61;102140.56;7391602;19;20014;-56
2024/01/26 03:32:45;;;;;;;25.75;14.20;;;;;;;9.12;89.85;102133.41;7391421;19;20031;-56
2024/01/26 03:35:15;;;;;;;28.58;15.38;;;;;;;9.19;89.44;102137.50;7393600;19;20018;-58
2024/01/26 03:37:46;;;;;;;27.17;15.25;;;;;;;9.18;89.62;102141.94;7392417;19;20018;-58
2024/01/26 03:40:16;;;;;;;24.17;15.48;;;;;;;9.16;90.03;102132.38;7391393;19;20022;-57
2024/01/26 03:42:45;;;;;;;26.10;15.55;;;;;;;9.22;89.67;102130.28;7391489;19;20074;-58
2024/01/26 03:45:17;;;;;;;24.13;14.30;;;;;;;9.29;89.31;102120.28;7393171;19;20022;-59
2024/01/26 03:47:45;;;;;;;24.70;14.50;;;;;;;9.26;89.56;102117.78;7392480;19;20386;-59
2024/01/26 03:50:16;;;;;;;26.15;15.52;;;;;;;9.20;89.71;102107.50;7390812;19;20436;-59
2024/01/26 03:52:46;;;;;;;24.98;15.07;;;;;;;9.32;89.64;102112.22;7392125;19;20018;-59
2024/01/26 03:55:16;;;;;;;24.67;14.93;;;;;;;9.39;88.89;102097.78;7391124;19;20019;-59
2024/01/26 03:57:45;;;;;;;26.25;14.38;;;;;;;9.42;88.91;102099.41;7391946;19;20078;-56
2024/01/26 04:00:16;;;;;;;23.92;14.23;;;;;;;9.40;89.12;102099.50;7390879;19;20014;-55
2024/01/26 04:02:45;;;;;;;24.65;14.15;;;;;;;9.48;88.87;102089.41;7392295;19;20022;-54
2024/01/26 04:05:16;;;;;;;26.17;15.02;;;;;;;9.43;89.29;102091.44;7392160;19;20081;-54
2024/01/26 04:07:45;;;;;;;26.30;15.65;;;;;;;9.41;89.50;102087.13;7391749;19;20019;-55
2024/01/26 04:10:16;;;;;;;25.83;14.70;;;;;;;9.33;90.04;102069.00;7390628;19;20018;-55
2024/01/26 04:12:46;;;;;;;25.48;14.18;;;;;;;9.34;89.81;102060.13;7392281;19;20037;-54
2024/01/26 04:15:16;;;;;;;27.85;15.98;;;;;;;9.41;89.75;102052.75;7396864;19;20010;-53
2024/01/26 04:17:46;;;;;;;27.05;15.27;;;;;;;9.37;89.62;102059.97;7399069;19;20018;-58
2024/01/26 04:20:16;;;;;;;24.33;14.52;;;;;;;9.42;89.55;102054.47;7395588;19;20015;-59
2024/01/26 04:22:46;;;;;;;24.50;14.35;;;;;;;9.49;89.30;102055.91;7395110;19;20086;-60
2024/01/26 04:25:16;;;;;;;26.05;15.80;;;;;;;9.39;89.87;102059.94;7397576;19;20074;-59
2024/01/26 04:27:45;;;;;;;25.25;14.93;;;;;;;9.36;89.83;102052.13;7397765;19;20018;-60
2024/01/26 04:30:16;;;;;;;28.40;15.23;;;;;;;9.31;90.33;102046.19;7396401;19;20026;-59
2024/01/26 04:32:44;;;;;;;24.42;14.68;;;;;;;9.36;90.47;102039.78;7397269;19;20015;-59
2024/01/26 04:35:14;;;;;;;24.52;14.20;;;;;;;9.47;90.04;102026.91;7395794;19;20025;-59
2024/01/26 04:37:46;;;;;;;25.55;14.65;;;;;;;9.52;89.38;102034.59;7398379;19;20026;-59
2024/01/26 04:40:16;;;;;;;24.63;15.38;;;;;;;9.45;89.90;102023.44;7396432;19;20018;-59
2024/01/26 04:42:46;;;;;;;25.90;16.27;;;;;;;9.40;90.34;102014.91;7397430;19;20025;-58
2024/01/26 04:45:15;;;;;;;26.80;15.98;;;;;;;9.43;90.67;102011.25;7397080;19;20014;-59
2024/01/26 04:47:45;;;;;;;27.42;15.88;;;;;;;9.54;90.12;102006.31;7396929;19;20018;-58
2024/01/26 04:50:16;;;;;;;26.17;16.25;;;;;;;9.60;89.63;101997.19;7394592;19;20023;-58
2024/01/26 04:52:44;;;;;;;27.58;15.93;;;;;;;9.55;89.99;101993.94;7397140;19;20022;-57
2024/01/26 04:55:14;;;;;;;28.67;16.95;;;;;;;9.52;90.40;101987.00;7397409;19;20010;-59
2024/01/26 04:57:46;;;;;;;27.65;16.45;;;;;;;9.43;90.89;101985.66;7397328;19;20015;-59
2024/01/26 05:00:18;;;;;;;25.70;15.75;;;;;;;9.57;90.24;101973.53;7394967;19;20018;-58
2024/01/26 05:02:47;;;;;;;26.23;16.17;;;;;;;9.50;90.58;101965.06;7396218;19;20372;-58
2024/01/26 05:05:17;;;;;;;27.95;17.35;;;;;;;9.49;90.79;101961.56;7396729;19;20018;-59
2024/01/26 05:07:47;;;;;;;26.75;15.98;;;;;;;9.50;90.69;101970.34;7396404;19;20043;-58
2024/01/26 05:10:18;;;;;;;27.13;17.10;;;;;;;9.57;90.63;101971.75;7394857;19;20033;-58
2024/01/26 05:12:48;;;;;;;25.67;16.35;;;;;;;9.62;90.32;101963.63;7394856;19;20066;-58
2024/01/26 05:15:19;;;;;;;30.35;17.85;;;;;;;9.57;90.62;101947.94;7396187;19;20060;-59
2024/01/26 05:17:48;;;;;;;25.70;16.08;;;;;;;9.61;90.46;101933.63;7394953;19;20057;-61
2024/01/26 05:20:19;;;;;;;27.60;16.70;;;;;;;9.63;90.60;101937.06;7394351;19;20018;-58
2024/01/26 05:22:47;;;;;;;26.63;16.80;;;;;;;9.63;90.60;101939.72;7395553;19;20019;-58
2024/01/26 05:25:18;;;;;;;31.08;18.08;;;;;;;9.63;90.74;101942.38;7393387;19;20018;-59
2024/01/26 05:27:48;;;;;;;27.75;16.70;;;;;;;9.68;90.25;101918.31;7396349;19;20382;-58
2024/01/26 05:30:18;;;;;;;27.95;17.50;;;;;;;9.72;90.00;101926.00;7394051;19;20074;-59
2024/01/26 05:32:47;;;;;;;25.63;16.73;;;;;;;9.63;90.39;101925.66;7395992;19;20082;-58
2024/01/26 05:35:16;;;;;;;26.85;16.85;;;;;;;9.68;90.38;101929.75;7393783;19;20021;-56
2024/01/26 05:37:45;;;;;;;28.85;16.60;;;;;;;9.80;90.05;101916.84;7393746;19;20089;-57
2024/01/26 05:40:15;;;;;;;26.17;16.40;;;;;;;9.83;89.76;101912.25;7394507;19;20022;-58
2024/01/26 05:42:45;;;;;;;26.25;16.13;;;;;;;9.85;89.78;101907.75;7395393;19;20018;-56
2024/01/26 05:45:16;;;;;;;25.85;17.92;;;;;;;9.83;89.73;101903.44;7394187;19;20751;-58
2024/01/26 05:47:47;;;;;;;26.65;16.60;;;;;;;9.82;90.19;101901.75;7395168;19;20029;-58
2024/01/26 05:50:20;;;;;;;23.30;16.17;;;;;;;9.80;90.17;101890.38;7391775;19;20029;-56
2024/01/26 05:52:48;;;;;;;25.73;16.95;;;;;;;9.86;90.01;101887.44;7395373;19;20022;-58
2024/01/26 05:55:18;;;;;;;25.15;16.73;;;;;;;9.92;89.42;101863.28;7394919;19;20507;-58
2024/01/26 05:57:56;;;;;;;26.00;16.73;;;;;;;9.89;89.82;101852.88;7393382;19;20018;-56
2024/01/26 06:00:26;;;;;;;25.40;15.93;;;;;;;9.93;89.44;101851.78;7392725;19;20017;-58
2024/01/26 06:02:56;;;;;;;27.85;17.48;;;;;;;9.96;89.47;101860.41;7394553;19;20018;-58
2024/01/26 06:05:27;;;;;;;24.33;16.35;;;;;;;9.91;89.61;101848.34;7393241;19;20052;-59
2024/01/26 06:07:59;;;;;;;22.92;15.77;;;;;;;9.96;89.46;101857.75;7395510;19;20026;-59
2024/01/26 06:10:36;;;;;;;23.88;16.52;;;;;;;9.94;89.53;101848.19;7392899;19;20023;-59
2024/01/26 06:13:07;;;;;;;24.35;16.25;;;;;;;9.95;89.56;101850.72;7394134;19;20014;-60
2024/01/26 06:15:38;;;;;;;24.67;16.17;;;;;;;10.04;89.29;101854.69;7394541;19;20027;-58
2024/01/26 06:18:10;;;;;;;23.38;15.73;;;;;;;10.07;89.18;101859.81;7393168;19;20057;-59
2024/01/26 06:20:40;;;;;;;24.67;16.00;;;;;;;10.06;89.15;101857.25;7392307;19;20419;-58
2024/01/26 06:23:12;;;;;;;22.90;15.70;;;;;;;10.09;88.94;101852.66;7393739;19;20018;-59
2024/01/26 06:25:42;;;;;;;26.55;16.48;;;;;;;10.07;89.26;101845.72;7393914;19;20014;-59
2024/01/26 06:28:12;;;;;;;25.13;16.50;;;;;;;10.05;89.42;101840.53;7392366;19;20026;-58
2024/01/26 06:30:43;;;;;;;23.02;15.75;;;;;;;10.12;89.20;101859.59;7392531;19;20014;-59
2024/01/26 06:33:13;;;;;;;25.98;16.13;;;;;;;10.02;89.24;101841.53;7393315;19;20018;-57
2024/01/26 06:35:44;;;;;;;25.48;16.17;;;;;;;10.09;89.06;101836.78;7393936;19;20022;-58
2024/01/26 06:38:14;;;;;;;23.05;16.10;;;;;;;10.17;88.88;101834.56;7392500;19;20018;-59
2024/01/26 06:40:46;;;;;;;23.17;15.27;;;;;;;10.12;88.98;101823.38;7391362;19;20090;-59
2024/01/26 06:43:17;;;;;;;22.80;15.30;;;;;;;10.14;88.79;101821.47;7391334;19;20025;-57
2024/01/26 06:45:47;;;;;;;23.58;15.68;;;;;;;10.15;88.85;101807.34;7393546;19;20039;-55
2024/01/26 06:48:18;;;;;;;22.90;14.73;;;;;;;10.12;89.48;101788.97;7393388;19;20549;-59
2024/01/26 06:50:48;;;;;;;22.35;14.60;;;;;;;10.12;89.50;101798.72;7391556;19;20022;-61
2024/01/26 06:53:19;;;;;;;21.23;14.02;;;;;;;10.13;89.34;101777.44;7392786;19;20014;-60
2024/01/26 06:55:49;;;;;;;22.90;14.27;;;;;;;10.23;89.04;101759.25;7392626;19;20543;-59
2024/01/26 06:58:23;;;;;;;20.95;14.10;;;;;;;10.18;89.31;101754.19;7392698;19;20035;-60
2024/01/26 07:00:53;;;;;;;20.75;13.52;;;;;;;10.19;89.54;101755.09;7391305;19;20135;-60
2024/01/26 07:03:24;;;;;;;21.25;13.80;;;;;;;10.13;89.69;101736.88;7392361;19;20018;-59
2024/01/26 07:05:55;;;;;;;20.50;13.38;;;;;;;10.20;89.50;101728.50;7391368;19;20022;-59
2024/01/26 07:08:25;;;;;;;19.25;12.77;;;;;;;10.26;89.83;101719.38;7392793;19;20019;-60
2024/01/26 07:10:56;;;;;;;19.67;13.25;;;;;;;10.23;89.51;101723.06;7391916;19;20384;-59
2024/01/26 07:13:27;;;;;;;19.83;12.73;;;;;;;10.30;89.36;101743.91;7391551;19;20018;-60
2024/01/26 07:16:00;;;;;;;20.17;12.82;;;;;;;10.31;89.53;101732.38;7392399;19;20023;-60
2024/01/26 07:18:38;;;;;;;17.98;11.90;;;;;;;10.29;89.74;101732.47;7391132;19;20039;-58
2024/01/26 07:21:10;;;;;;;19.90;12.10;;;;;;;10.29;89.86;101716.56;7391032;19;20394;-58
2024/01/26 07:23:41;;;;;;;18.30;11.25;;;;;;;10.38;89.54;101728.41;7392463;19;20342;-60
2024/01/26 07:26:18;;;;;;;17.90;11.63;;;;;;;10.38;89.73;101715.19;7392495;19;20044;-56
2024/01/26 07:28:48;;;;;;;16.08;10.65;;;;;;;10.39;89.89;101716.91;7392338;19;20037;-58
2024/01/26 07:31:19;;;;;;;15.52;10.32;;;;;;;10.44;89.76;101702.44;7389933;19;20011;-58
2024/01/26 07:33:50;;;;;;;16.52;10.57;;;;;;;10.38;90.05;101700.19;7391984;19;20018;-58
2024/01/26 07:36:21;;;;;;;16.02;10.63;;;;;;;10.43;90.05;101694.59;7391480;19;20394;-58
2024/01/26 07:38:51;;;;;;;17.58;10.00;;;;;;;10.40;90.44;101684.19;7391625;19;20014;-59
2024/01/26 07:41:22;;;;;;;16.20;9.88;;;;;;;10.46;90.23;101686.50;7389587;19;20107;-59
2024/01/26 07:43:52;;;;;;;16.02;9.48;;;;;;;10.42;90.41;101669.09;7390894;19;20094;-59
2024/01/26 07:46:23;;;;;;;16.98;9.95;;;;;;;10.42;90.35;101659.34;7391268;19;20023;-59
2024/01/26 07:48:53;;;;;;;14.30;9.40;;;;;;;10.42;90.61;101654.03;7392743;19;20039;-57
2024/01/26 07:51:24;;;;;;;15.57;9.63;;;;;;;10.40;91.18;101652.41;7395235;19;20014;-60
2024/01/26 07:53:55;;;;;;;15.48;9.18;;;;;;;10.45;90.96;101648.56;7397727;19;20018;-60
2024/01/26 07:56:26;;;;;;;15.13;9.00;;;;;;;10.45;91.30;101648.56;7397416;19;20015;-57
2024/01/26 07:58:56;;;;;;;13.50;8.95;;;;;;;10.43;91.72;101658.38;7399634;19;20018;-58
2024/01/26 08:01:34;;;;;;;14.77;8.45;;;;;;;10.45;91.92;101653.88;7395571;19;20029;-59
2024/01/26 08:04:05;;;;;;;13.75;8.55;;;;;;;10.44;92.02;101653.94;7398581;19;20484;-58
2024/01/26 08:06:37;;;;;;;13.88;8.48;;;;;;;10.46;91.98;101644.13;7397791;19;20022;-60
2024/01/26 08:09:10;;;;;;;14.35;8.00;;;;;;;10.45;92.26;101640.63;7398980;19;20030;-61
2024/01/26 08:11:41;;;;;;;13.40;8.13;;;;;;;10.48;92.49;101636.94;7395873;19;20017;-59
2024/01/26 08:14:11;;;;;;;14.15;8.25;;;;;;;10.45;92.49;101622.09;7398536;19;20014;-59
2024/01/26 08:16:42;;;;;;;16.23;8.25;;;;;;;10.50;92.77;101629.75;7398085;19;20015;-62
2024/01/26 08:19:12;;;;;;;13.98;8.70;;;;;;;10.48;92.96;101624.53;7397946;19;20029;-62
2024/01/26 08:21:44;;;;;;;17.60;8.90;;;;;;;10.53;92.77;101623.41;7393434;19;20023;-61
2024/01/26 08:24:14;;;;;;;15.75;9.25;;;;;;;10.45;93.22;101624.75;7397090;19;20487;-61
2024/01/26 08:26:45;;;;;;;14.18;8.40;;;;;;;10.46;93.22;101612.34;7395948;19;20053;-61
2024/01/26 08:29:16;;;;;;;12.38;7.97;;;;;;;10.47;93.44;101606.94;7396070;19;20022;-63
2024/01/26 08:31:47;;;;;;;15.23;9.32;;;;;;;10.51;93.73;101598.81;7394028;19;20510;-60
2024/01/26 08:34:18;;;;;;;13.05;8.63;;;;;;;10.51;93.59;101581.13;7397253;19;20491;-60
2024/01/26 08:36:49;;;;;;;14.60;8.68;;;;;;;10.52;93.36;101571.38;7397662;19;20021;-60
2024/01/26 08:39:20;;;;;;;15.68;9.20;;;;;;;10.51;93.58;101570.53;7396272;19;20360;-58
2024/01/26 08:41:51;;;;;;;14.68;9.93;;;;;;;10.53;93.67;101571.31;7392163;19;20515;-58
2024/01/26 08:44:22;;;;;;;15.65;9.90;;;;;;;10.51;93.91;101567.06;7397192;19;20374;-56
2024/01/26 08:46:52;;;;;;;17.27;10.40;;;;;;;10.49;94.17;101561.81;7397057;19;20029;-58
2024/01/26 08:49:24;;;;;;;17.70;11.32;;;;;;;10.51;93.99;101552.00;7395291;19;20085;-57
2024/01/26 08:51:57;;;;;;;18.30;11.63;;;;;;;10.54;94.08;101562.41;7394403;19;20019;-56
2024/01/26 08:54:32;;;;;;;16.05;10.93;;;;;;;10.53;94.05;101555.44;7395649;19;20039;-57
2024/01/26 08:57:02;;;;;;;17.52;10.82;;;;;;;10.59;93.76;101562.13;7396572;19;20018;-58
2024/01/26 08:59:38;;;;;;;16.75;11.65;;;;;;;10.54;93.91;101551.81;7396345;19;20394;-56
2024/01/26 09:02:09;;;;;;;16.50;11.82;;;;;;;10.60;93.62;101562.03;7396084;19;20014;-58
2024/01/26 09:04:39;;;;;;;17.88;11.82;;;;;;;10.63;93.85;101550.41;7395672;19;20030;-57
2024/01/26 09:07:10;;;;;;;16.20;11.55;;;;;;;10.59;94.01;101551.53;7396841;19;20026;-57
2024/01/26 09:09:40;;;;;;;18.20;12.82;;;;;;;10.64;93.96;101546.81;7395302;19;20031;-58
2024/01/26 09:12:11;;;;;;;16.95;12.65;;;;;;;10.64;93.76;101549.44;7394364;19;20022;-57
2024/01/26 09:14:41;;;;;;;16.33;12.13;;;;;;;10.64;94.01;101541.50;7396444;19;20086;-57
2024/01/26 09:17:16;;;;;;;17.92;12.02;;;;;;;10.63;94.05;101540.66;7395976;19;20626;-57
2024/01/26 09:19:49;;;;;;;18.48;12.50;;;;;;;10.68;94.13;101543.91;7395541;19;20096;-58
2024/01/26 09:22:23;;;;;;;19.27;11.82;;;;;;;10.67;94.15;101538.69;7395363;19;20040;-57
2024/01/26 09:24:53;;;;;;;16.20;11.73;;;;;;;10.66;94.31;101532.53;7394505;19;20349;-58
2024/01/26 09:27:23;;;;;;;15.63;11.20;;;;;;;10.72;94.07;101523.34;7396160;19;20014;-58
2024/01/26 09:29:55;;;;;;;15.45;11.07;;;;;;;10.69;94.23;101526.19;7395227;19;20037;-58
2024/01/26 09:32:25;;;;;;;15.75;11.05;;;;;;;10.70;94.02;101518.16;7395537;19;20023;-57
2024/01/26 09:34:56;;;;;;;14.38;10.60;;;;;;;10.74;93.92;101519.66;7393896;19;20018;-58
2024/01/26 09:37:27;;;;;;;14.20;10.10;;;;;;;10.75;93.97;101512.56;7395530;19;20074;-59
2024/01/26 09:39:57;;;;;;;13.07;10.27;;;;;;;10.77;93.92;101512.47;7394326;19;20073;-57
2024/01/26 09:42:33;;;;;;;13.02;9.73;;;;;;;10.74;94.50;101502.91;7395023;19;20046;-57
2024/01/26 09:45:04;;;;;;;13.20;9.38;;;;;;;10.74;94.56;101495.81;7394897;19;20524;-57
2024/01/26 09:47:43;;;;;;;14.43;8.95;;;;;;;10.73;94.62;101499.41;7393128;19;20522;-59
2024/01/26 09:50:15;;;;;;;12.57;8.75;;;;;;;10.76;94.96;101489.56;7393861;19;20102;-57
2024/01/26 09:52:46;;;;;;;13.95;8.40;;;;;;;10.76;94.84;101490.44;7395516;19;20039;-59
2024/01/26 09:55:18;;;;;;;11.43;8.13;;;;;;;10.75;94.80;101491.38;7393303;19;20053;-59
2024/01/26 09:57:47;;;;;;;10.30;7.45;;;;;;;10.83;94.61;101488.22;7395083;19;20404;-58
2024/01/26 10:00:18;;;;;;;11.25;7.63;;;;;;;10.85;94.39;101475.75;7393339;19;20022;-58
2024/01/26 10:02:46;;;;;;;10.35;7.13;;;;;;;10.84;94.45;101474.91;7395059;19;20027;-59
2024/01/26 10:05:17;;;;;;;9.93;6.38;;;;;;;10.87;94.45;101485.28;7392083;19;20022;-58
2024/01/26 10:07:47;;;;;;;9.63;6.22;;;;;;;10.85;94.56;101483.69;7394492;19;20057;-58
2024/01/26 10:10:17;;;;;;;10.63;6.25;;;;;;;10.86;94.65;101475.66;7391667;19;20023;-59
2024/01/26 10:12:46;;;;;;;10.80;6.22;;;;;;;10.91;94.33;101484.19;7392930;19;20011;-59
2024/01/26 10:15:18;;;;;;;8.82;5.70;;;;;;;10.99;94.18;101473.09;7394589;19;20014;-57
2024/01/26 10:17:53;;;;;;;8.52;5.13;;;;;;;11.00;94.18;101474.78;7394891;19;20018;-59
2024/01/26 10:20:24;;;;;;;8.23;5.07;;;;;;;11.01;94.28;101483.56;7392695;19;20018;-59
2024/01/26 10:22:55;;;;;;;7.50;4.55;;;;;;;11.12;93.52;101468.69;7394121;19;20056;-57
2024/01/26 10:25:25;;;;;;;6.40;3.85;;;;;;;11.21;93.00;101476.03;7391203;19;20344;-57
2024/01/26 10:27:56;;;;;;;7.97;3.97;;;;;;;11.27;92.56;101471.31;7392550;19;20073;-58
2024/01/26 10:30:30;;;;;;;5.70;3.58;;;;;;;11.27;92.75;101466.84;7392455;19;20131;-58
2024/01/26 10:33:02;;;;;;;5.15;3.25;;;;;;;11.30;92.46;101453.41;7393909;19;20014;-59
2024/01/26 10:35:38;;;;;;;5.13;2.85;;;;;;;11.38;92.43;101455.53;7393824;19;20506;-59
2024/01/26 10:38:10;;;;;;;4.97;2.47;;;;;;;11.43;92.30;101448.13;7393844;19;20044;-60
2024/01/26 10:40:44;;;;;;;6.03;2.80;;;;;;;11.42;92.45;101459.69;7392234;19;20086;-60
2024/01/26 10:43:17;;;;;;;4.53;2.53;;;;;;;11.42;92.33;101457.88;7393408;19;20044;-59
2024/01/26 10:45:48;;;;;;;4.38;2.42;;;;;;;11.33;93.20;101463.81;7391917;19;20032;-59
2024/01/26 10:48:21;;;;;;;5.03;2.30;;;;;;;11.35;93.20;101458.38;7392832;19;20022;-57
2024/01/26 10:50:54;;;;;;;3.63;1.95;;;;;;;11.36;93.29;101463.56;7390155;19;20034;-58
2024/01/26 10:53:27;;;;;;;3.38;1.90;;;;;;;11.44;92.85;101468.38;7393450;19;20064;-58
2024/01/26 10:55:58;;;;;;;3.40;1.98;;;;;;;11.34;92.91;101459.34;7393078;19;20019;-57
2024/01/26 10:58:35;;;;;;;2.97;1.92;;;;;;;11.33;93.73;101474.41;7392808;19;20027;-58
2024/01/26 11:01:05;;;;;;;4.53;2.35;;;;;;;11.28;93.95;101520.72;7388735;19;20503;-59
2024/01/26 11:03:39;;;;;;;4.03;1.98;;;;;;;11.22;94.84;101567.91;7392750;19;20031;-59
2024/01/26 11:06:12;;;;;;;7.82;3.22;;;;;;;11.14;89.20;101554.28;7389985;19;20025;-59
2024/01/26 11:08:43;;;;;;;8.57;3.47;;;;;;;11.17;87.16;101571.78;7392526;19;20267;-59
2024/01/26 11:11:19;;;;;;;4.38;1.80;;;;;;;11.01;85.44;101586.94;7388678;19;20017;-60
2024/01/26 11:13:52;;;;;;;4.05;1.50;;;;;;;10.86;83.52;101586.94;7392396;19;20006;-60
2024/01/26 11:16:26;;;;;;;3.17;2.10;;;;;;;10.85;83.70;101584.38;7390700;19;20475;-60
2024/01/26 11:18:59;;;;;;;3.45;1.75;;;;;;;10.87;83.38;101585.13;7392517;19;20025;-60
2024/01/26 11:21:44;;;;;;;3.00;1.05;;;;;;;10.79;81.83;101590.91;7388092;19;20077;-60
2024/01/26 11:24:17;;;;;;;2.75;0.80;;;;;;;10.72;82.17;101602.81;7389490;19;20025;-59
2024/01/26 11:26:59;;;;;;;6.85;1.30;;;;;;;10.66;82.06;101619.94;7390610;19;20025;-58
2024/01/26 11:29:37;;;;;;;4.35;0.93;;;;;;;10.54;82.17;101630.44;7391627;19;20018;-59
2024/01/26 11:32:18;;;;;;;4.50;1.10;;;;;;;10.59;80.94;101638.94;7391746;19;20090;-59
2024/01/26 11:35:03;;;;;;;3.90;1.00;;;;;;;10.58;79.77;101647.84;7390632;19;20033;-60